sensor_id;sensor_type;location;lat;lon;timestamp;pressure;altitude;pressure_sealevel;temperature;humidity
61676;BME280;47574;52.090;5.244;2023-04-07T00:01:12;101443.0;;;14.73;59.08
61676;BME280;47574;52.090;5.244;2023-04-07T00:02:48;101443.0;;;14.83;58.99
61676;BME280;47574;52.090;5.244;2023-04-07T00:06:00;101442.0;;;14.74;58.95
61676;BME280;47574;52.090;5.244;2023-04-07T00:07:36;101444.0;;;14.58;59.69
61676;BME280;47574;52.090;5.244;2023-04-07T00:09:12;101445.0;;;14.6;59.42
61676;BME280;47574;52.090;5.244;2023-04-07T00:12:25;101446.0;;;14.72;59.06
61676;BME280;47574;52.090;5.244;2023-04-07T00:14:01;101448.0;;;14.77;59.08
61676;BME280;47574;52.090;5.244;2023-04-07T00:15:37;101449.0;;;14.76;59.11
61676;BME280;47574;52.090;5.244;2023-04-07T00:17:14;101450.0;;;14.71;59.22
61676;BME280;47574;52.090;5.244;2023-04-07T00:20:27;101455.0;;;14.75;59.01
61676;BME280;47574;52.090;5.244;2023-04-07T00:22:03;101457.0;;;14.57;59.42
61676;BME280;47574;52.090;5.244;2023-04-07T00:23:39;101457.0;;;14.44;59.28
61676;BME280;47574;52.090;5.244;2023-04-07T00:26:51;101460.0;;;14.61;59.14
61676;BME280;47574;52.090;5.244;2023-04-07T00:28:27;101458.0;;;14.65;58.58
61676;BME280;47574;52.090;5.244;2023-04-07T00:30:04;101459.0;;;14.63;58.85
61676;BME280;47574;52.090;5.244;2023-04-07T00:33:18;101456.0;;;14.61;58.94
61676;BME280;47574;52.090;5.244;2023-04-07T00:34:54;101460.0;;;14.82;58.43
61676;BME280;47574;52.090;5.244;2023-04-07T00:36:30;101460.0;;;14.63;58.58
61676;BME280;47574;52.090;5.244;2023-04-07T00:38:06;101464.0;;;14.85;58.18
61676;BME280;47574;52.090;5.244;2023-04-07T00:41:18;101464.0;;;14.56;59.2
61676;BME280;47574;52.090;5.244;2023-04-07T00:42:54;101461.0;;;14.61;58.83
61676;BME280;47574;52.090;5.244;2023-04-07T00:44:30;101461.0;;;14.31;59.12
61676;BME280;47574;52.090;5.244;2023-04-07T00:47:43;101458.0;;;14.37;59.19
61676;BME280;47574;52.090;5.244;2023-04-07T00:49:19;101460.0;;;14.36;59.18
61676;BME280;47574;52.090;5.244;2023-04-07T00:50:55;101460.0;;;14.36;59.34
61676;BME280;47574;52.090;5.244;2023-04-07T00:54:09;101461.0;;;14.48;59.1
61676;BME280;47574;52.090;5.244;2023-04-07T00:55:45;101465.0;;;14.52;59.07
61676;BME280;47574;52.090;5.244;2023-04-07T00:57:21;101465.0;;;14.27;59.3
61676;BME280;47574;52.090;5.244;2023-04-07T01:00:37;101461.0;;;14.4;59.16
61676;BME280;47574;52.090;5.244;2023-04-07T01:02:20;101457.0;;;14.6;58.59
61676;BME280;47574;52.090;5.244;2023-04-07T01:04:00;101464.0;;;14.61;58.57
61676;BME280;47574;52.090;5.244;2023-04-07T01:05:49;101460.0;;;14.48;58.74
61676;BME280;47574;52.090;5.244;2023-04-07T01:07:33;101464.0;;;14.6;58.56
61676;BME280;47574;52.090;5.244;2023-04-07T01:11:02;101463.0;;;14.55;58.7
61676;BME280;47574;52.090;5.244;2023-04-07T01:12:46;101466.0;;;14.68;58.33
61676;BME280;47574;52.090;5.244;2023-04-07T01:14:32;101465.0;;;14.49;58.74
61676;BME280;47574;52.090;5.244;2023-04-07T01:16:12;101462.0;;;14.5;59.0
61676;BME280;47574;52.090;5.244;2023-04-07T01:18:05;101464.0;;;14.4;59.04
61676;BME280;47574;52.090;5.244;2023-04-07T01:21:32;101459.0;;;14.76;58.15
61676;BME280;47574;52.090;5.244;2023-04-07T01:23:16;101457.0;;;14.39;58.8
61676;BME280;47574;52.090;5.244;2023-04-07T01:25:16;101463.0;;;14.51;58.71
61676;BME280;47574;52.090;5.244;2023-04-07T01:26:59;101459.0;;;14.42;58.64
61676;BME280;47574;52.090;5.244;2023-04-07T01:29:31;101459.0;;;14.29;59.26
61676;BME280;47574;52.090;5.244;2023-04-07T01:31:08;101455.0;;;14.38;58.91
61676;BME280;47574;52.090;5.244;2023-04-07T01:32:49;101460.0;;;14.39;58.93
61676;BME280;47574;52.090;5.244;2023-04-07T01:36:08;101464.0;;;14.5;58.83
61676;BME280;47574;52.090;5.244;2023-04-07T01:37:45;101464.0;;;14.34;58.82
61676;BME280;47574;52.090;5.244;2023-04-07T01:39:25;101465.0;;;14.55;58.86
61676;BME280;47574;52.090;5.244;2023-04-07T01:41:02;101465.0;;;14.55;58.36
61676;BME280;47574;52.090;5.244;2023-04-07T01:44:17;101466.0;;;14.47;58.56
61676;BME280;47574;52.090;5.244;2023-04-07T01:45:56;101468.0;;;14.38;58.58
61676;BME280;47574;52.090;5.244;2023-04-07T01:47:33;101472.0;;;14.35;58.72
61676;BME280;47574;52.090;5.244;2023-04-07T01:50:48;101471.0;;;14.52;58.46
61676;BME280;47574;52.090;5.244;2023-04-07T01:52:25;101472.0;;;14.57;58.13
61676;BME280;47574;52.090;5.244;2023-04-07T01:54:03;101470.0;;;14.46;58.37
61676;BME280;47574;52.090;5.244;2023-04-07T01:55:40;101473.0;;;14.57;58.51
61676;BME280;47574;52.090;5.244;2023-04-07T01:58:52;101470.0;;;14.36;58.85
61676;BME280;47574;52.090;5.244;2023-04-07T02:00:28;101473.0;;;14.66;58.09
61676;BME280;47574;52.090;5.244;2023-04-07T02:02:05;101470.0;;;14.49;58.15
61676;BME280;47574;52.090;5.244;2023-04-07T02:05:23;101469.0;;;14.21;58.97
61676;BME280;47574;52.090;5.244;2023-04-07T02:07:07;101466.0;;;14.32;58.74
61676;BME280;47574;52.090;5.244;2023-04-07T02:08:49;101471.0;;;14.6;58.55
61676;BME280;47574;52.090;5.244;2023-04-07T02:10:34;101470.0;;;14.53;58.21
61676;BME280;47574;52.090;5.244;2023-04-07T02:13:52;101466.0;;;14.44;58.5
61676;BME280;47574;52.090;5.244;2023-04-07T02:15:30;101462.0;;;14.39;58.49
61676;BME280;47574;52.090;5.244;2023-04-07T02:17:07;101464.0;;;14.54;58.15
61676;BME280;47574;52.090;5.244;2023-04-07T02:18:44;101461.0;;;14.52;57.98
61676;BME280;47574;52.090;5.244;2023-04-07T02:22:01;101463.0;;;14.47;58.07
61676;BME280;47574;52.090;5.244;2023-04-07T02:23:38;101464.0;;;14.73;57.58
61676;BME280;47574;52.090;5.244;2023-04-07T02:25:23;101464.0;;;14.49;58.86
61676;BME280;47574;52.090;5.244;2023-04-07T02:26:59;101467.0;;;14.52;58.38
61676;BME280;47574;52.090;5.244;2023-04-07T02:30:13;101466.0;;;14.42;58.68
61676;BME280;47574;52.090;5.244;2023-04-07T02:31:49;101468.0;;;14.6;58.43
61676;BME280;47574;52.090;5.244;2023-04-07T02:33:25;101464.0;;;14.57;58.01
61676;BME280;47574;52.090;5.244;2023-04-07T02:36:37;101462.0;;;14.42;58.18
61676;BME280;47574;52.090;5.244;2023-04-07T02:38:14;101466.0;;;14.52;57.98
61676;BME280;47574;52.090;5.244;2023-04-07T02:39:50;101458.0;;;14.35;58.25
61676;BME280;47574;52.090;5.244;2023-04-07T02:43:02;101464.0;;;14.2;58.55
61676;BME280;47574;52.090;5.244;2023-04-07T02:44:38;101466.0;;;14.22;58.48
61676;BME280;47574;52.090;5.244;2023-04-07T02:46:14;101466.0;;;14.59;58.2
61676;BME280;47574;52.090;5.244;2023-04-07T02:47:50;101468.0;;;14.75;57.6
61676;BME280;47574;52.090;5.244;2023-04-07T02:51:03;101468.0;;;14.82;57.77
61676;BME280;47574;52.090;5.244;2023-04-07T02:52:39;101469.0;;;14.35;58.56
61676;BME280;47574;52.090;5.244;2023-04-07T02:54:15;101470.0;;;14.34;58.39
61676;BME280;47574;52.090;5.244;2023-04-07T02:57:27;101470.0;;;14.63;57.98
61676;BME280;47574;52.090;5.244;2023-04-07T02:59:03;101471.0;;;14.71;58.2
61676;BME280;47574;52.090;5.244;2023-04-07T03:00:39;101472.0;;;14.62;58.31
61676;BME280;47574;52.090;5.244;2023-04-07T03:03:52;101472.0;;;14.66;57.63
61676;BME280;47574;52.090;5.244;2023-04-07T03:05:28;101472.0;;;14.53;58.0
61676;BME280;47574;52.090;5.244;2023-04-07T03:07:04;101471.0;;;14.57;58.45
61676;BME280;47574;52.090;5.244;2023-04-07T03:10:16;101473.0;;;14.62;58.33
61676;BME280;47574;52.090;5.244;2023-04-07T03:11:52;101480.0;;;14.27;58.64
61676;BME280;47574;52.090;5.244;2023-04-07T03:13:28;101476.0;;;14.61;58.5
61676;BME280;47574;52.090;5.244;2023-04-07T03:15:06;101473.0;;;14.59;58.28
61676;BME280;47574;52.090;5.244;2023-04-07T03:18:18;101480.0;;;14.79;57.88
61676;BME280;47574;52.090;5.244;2023-04-07T03:19:54;101476.0;;;14.69;57.79
61676;BME280;47574;52.090;5.244;2023-04-07T03:21:30;101471.0;;;14.7;57.59
61676;BME280;47574;52.090;5.244;2023-04-07T03:24:43;101470.0;;;14.69;57.56
61676;BME280;47574;52.090;5.244;2023-04-07T03:26:19;101470.0;;;14.48;58.56
61676;BME280;47574;52.090;5.244;2023-04-07T03:27:55;101470.0;;;14.51;57.94
61676;BME280;47574;52.090;5.244;2023-04-07T03:31:07;101474.0;;;14.48;58.36
61676;BME280;47574;52.090;5.244;2023-04-07T03:32:43;101468.0;;;14.45;58.17
61676;BME280;47574;52.090;5.244;2023-04-07T03:34:19;101470.0;;;14.7;57.53
61676;BME280;47574;52.090;5.244;2023-04-07T03:35:55;101471.0;;;14.51;57.79
61676;BME280;47574;52.090;5.244;2023-04-07T03:39:08;101472.0;;;14.46;58.18
61676;BME280;47574;52.090;5.244;2023-04-07T03:40:44;101473.0;;;14.62;58.23
61676;BME280;47574;52.090;5.244;2023-04-07T03:42:20;101478.0;;;14.49;57.93
61676;BME280;47574;52.090;5.244;2023-04-07T03:45:32;101475.0;;;14.42;58.53
61676;BME280;47574;52.090;5.244;2023-04-07T03:47:08;101478.0;;;14.63;57.94
61676;BME280;47574;52.090;5.244;2023-04-07T03:48:45;101480.0;;;14.63;58.2
61676;BME280;47574;52.090;5.244;2023-04-07T03:51:57;101477.0;;;14.48;58.42
61676;BME280;47574;52.090;5.244;2023-04-07T03:53:33;101482.0;;;14.61;58.16
61676;BME280;47574;52.090;5.244;2023-04-07T03:55:09;101482.0;;;14.22;58.87
61676;BME280;47574;52.090;5.244;2023-04-07T03:58:21;101486.0;;;14.6;58.18
61676;BME280;47574;52.090;5.244;2023-04-07T03:59:58;101481.0;;;14.71;58.39
61676;BME280;47574;52.090;5.244;2023-04-07T04:01:34;101485.0;;;14.71;57.92
61676;BME280;47574;52.090;5.244;2023-04-07T04:03:10;101488.0;;;14.77;58.08
61676;BME280;47574;52.090;5.244;2023-04-07T04:06:22;101484.0;;;14.51;58.05
61676;BME280;47574;52.090;5.244;2023-04-07T04:07:58;101488.0;;;14.68;58.21
61676;BME280;47574;52.090;5.244;2023-04-07T04:09:34;101488.0;;;14.75;57.94
61676;BME280;47574;52.090;5.244;2023-04-07T04:12:47;101484.0;;;14.51;58.13
61676;BME280;47574;52.090;5.244;2023-04-07T04:14:24;101484.0;;;14.64;58.25
61676;BME280;47574;52.090;5.244;2023-04-07T04:16:00;101488.0;;;14.68;57.75
61676;BME280;47574;52.090;5.244;2023-04-07T04:19:12;101490.0;;;14.57;58.06
61676;BME280;47574;52.090;5.244;2023-04-07T04:20:48;101485.0;;;14.6;57.97
61676;BME280;47574;52.090;5.244;2023-04-07T04:22:24;101489.0;;;14.78;57.48
61676;BME280;47574;52.090;5.244;2023-04-07T04:24:00;101487.0;;;14.71;57.25
61676;BME280;47574;52.090;5.244;2023-04-07T04:27:14;101489.0;;;14.26;58.45
61676;BME280;47574;52.090;5.244;2023-04-07T04:28:51;101490.0;;;14.36;58.14
61676;BME280;47574;52.090;5.244;2023-04-07T04:30:27;101488.0;;;14.53;57.78
61676;BME280;47574;52.090;5.244;2023-04-07T04:33:40;101489.0;;;14.55;57.54
61676;BME280;47574;52.090;5.244;2023-04-07T04:35:17;101494.0;;;14.47;57.69
61676;BME280;47574;52.090;5.244;2023-04-07T04:36:53;101493.0;;;14.36;57.87
61676;BME280;47574;52.090;5.244;2023-04-07T04:40:06;101497.0;;;14.4;57.34
61676;BME280;47574;52.090;5.244;2023-04-07T04:41:44;101495.0;;;14.49;57.42
61676;BME280;47574;52.090;5.244;2023-04-07T04:43:20;101501.0;;;14.51;57.62
61676;BME280;47574;52.090;5.244;2023-04-07T04:44:57;101505.0;;;14.53;57.31
61676;BME280;47574;52.090;5.244;2023-04-07T04:48:09;101510.0;;;14.6;57.28
61676;BME280;47574;52.090;5.244;2023-04-07T04:49:46;101515.0;;;14.58;57.42
61676;BME280;47574;52.090;5.244;2023-04-07T04:51:23;101519.0;;;14.47;57.84
61676;BME280;47574;52.090;5.244;2023-04-07T04:56:11;101520.0;;;14.67;57.09
61676;BME280;47574;52.090;5.244;2023-04-07T04:57:47;101524.0;;;14.38;57.36
61676;BME280;47574;52.090;5.244;2023-04-07T05:00:59;101532.0;;;14.41;57.24
61676;BME280;47574;52.090;5.244;2023-04-07T05:02:36;101532.0;;;14.5;57.03
61676;BME280;47574;52.090;5.244;2023-04-07T05:04:13;101532.0;;;14.34;57.43
61676;BME280;47574;52.090;5.244;2023-04-07T05:07:27;101530.0;;;14.37;57.17
61676;BME280;47574;52.090;5.244;2023-04-07T05:09:03;101532.0;;;14.44;57.08
61676;BME280;47574;52.090;5.244;2023-04-07T05:10:41;101532.0;;;14.65;56.35
61676;BME280;47574;52.090;5.244;2023-04-07T05:15:30;101530.0;;;14.62;56.71
61676;BME280;47574;52.090;5.244;2023-04-07T05:17:08;101531.0;;;14.36;56.85
61676;BME280;47574;52.090;5.244;2023-04-07T05:18:45;101530.0;;;14.42;56.97
61676;BME280;47574;52.090;5.244;2023-04-07T05:21:57;101531.0;;;14.36;57.34
61676;BME280;47574;52.090;5.244;2023-04-07T05:23:34;101535.0;;;14.36;57.24
61676;BME280;47574;52.090;5.244;2023-04-07T05:25:11;101534.0;;;14.5;56.87
61676;BME280;47574;52.090;5.244;2023-04-07T05:28:24;101536.0;;;14.63;56.84
61676;BME280;47574;52.090;5.244;2023-04-07T05:30:00;101540.0;;;14.65;56.72
61676;BME280;47574;52.090;5.244;2023-04-07T05:31:36;101533.0;;;14.75;56.62
61676;BME280;47574;52.090;5.244;2023-04-07T05:33:13;101540.0;;;14.73;56.33
61676;BME280;47574;52.090;5.244;2023-04-07T05:36:26;101545.0;;;14.66;56.28
61676;BME280;47574;52.090;5.244;2023-04-07T05:38:02;101542.0;;;14.57;56.24
61676;BME280;47574;52.090;5.244;2023-04-07T05:39:39;101542.0;;;14.58;56.55
61676;BME280;47574;52.090;5.244;2023-04-07T05:42:52;101547.0;;;14.64;56.48
61676;BME280;47574;52.090;5.244;2023-04-07T05:44:29;101543.0;;;14.77;56.19
61676;BME280;47574;52.090;5.244;2023-04-07T05:46:06;101549.0;;;14.59;56.37
61676;BME280;47574;52.090;5.244;2023-04-07T05:49:18;101548.0;;;14.5;56.89
61676;BME280;47574;52.090;5.244;2023-04-07T05:50:54;101549.0;;;14.79;56.77
61676;BME280;47574;52.090;5.244;2023-04-07T05:52:32;101550.0;;;14.73;56.3
61676;BME280;47574;52.090;5.244;2023-04-07T05:54:08;101550.0;;;14.67;56.26
61676;BME280;47574;52.090;5.244;2023-04-07T05:57:22;101550.0;;;14.84;56.11
61676;BME280;47574;52.090;5.244;2023-04-07T05:58:58;101552.0;;;14.73;55.97
61676;BME280;47574;52.090;5.244;2023-04-07T06:00:35;101558.0;;;14.57;56.86
61676;BME280;47574;52.090;5.244;2023-04-07T06:03:48;101555.0;;;14.7;56.57
61676;BME280;47574;52.090;5.244;2023-04-07T06:05:24;101557.0;;;14.74;56.18
61676;BME280;47574;52.090;5.244;2023-04-07T06:07:01;101562.0;;;14.57;56.48
61676;BME280;47574;52.090;5.244;2023-04-07T06:08:38;101561.0;;;14.46;56.97
61676;BME280;47574;52.090;5.244;2023-04-07T06:11:50;101565.0;;;14.33;57.1
61676;BME280;47574;52.090;5.244;2023-04-07T06:13:26;101565.0;;;14.39;56.98
61676;BME280;47574;52.090;5.244;2023-04-07T06:15:03;101568.0;;;14.62;56.68
61676;BME280;47574;52.090;5.244;2023-04-07T06:18:16;101566.0;;;14.54;56.86
61676;BME280;47574;52.090;5.244;2023-04-07T06:19:51;101568.0;;;14.52;57.23
61676;BME280;47574;52.090;5.244;2023-04-07T06:21:27;101568.0;;;14.84;56.11
61676;BME280;47574;52.090;5.244;2023-04-07T06:26:16;101572.0;;;14.75;56.22
61676;BME280;47574;52.090;5.244;2023-04-07T06:27:52;101572.0;;;14.75;56.44
61676;BME280;47574;52.090;5.244;2023-04-07T06:31:07;101578.0;;;14.75;56.29
61676;BME280;47574;52.090;5.244;2023-04-07T06:32:43;101580.0;;;14.74;56.09
61676;BME280;47574;52.090;5.244;2023-04-07T06:34:19;101582.0;;;14.69;56.59
61676;BME280;47574;52.090;5.244;2023-04-07T06:35:56;101584.0;;;14.73;56.57
61676;BME280;47574;52.090;5.244;2023-04-07T06:39:08;101583.0;;;14.8;56.68
61676;BME280;47574;52.090;5.244;2023-04-07T06:40:44;101586.0;;;14.55;57.48
61676;BME280;47574;52.090;5.244;2023-04-07T06:42:20;101586.0;;;14.73;57.19
61676;BME280;47574;52.090;5.244;2023-04-07T06:45:32;101586.0;;;14.77;56.95
61676;BME280;47574;52.090;5.244;2023-04-07T06:47:09;101587.0;;;14.87;57.25
61676;BME280;47574;52.090;5.244;2023-04-07T06:48:45;101587.0;;;14.88;56.73
61676;BME280;47574;52.090;5.244;2023-04-07T06:51:57;101593.0;;;14.61;57.06
61676;BME280;47574;52.090;5.244;2023-04-07T06:53:33;101594.0;;;14.81;57.16
61676;BME280;47574;52.090;5.244;2023-04-07T06:55:09;101601.0;;;14.68;57.26
61676;BME280;47574;52.090;5.244;2023-04-07T06:56:45;101599.0;;;14.57;56.98
61676;BME280;47574;52.090;5.244;2023-04-07T06:59:57;101600.0;;;14.71;57.0
61676;BME280;47574;52.090;5.244;2023-04-07T07:01:33;101605.0;;;14.81;56.7
61676;BME280;47574;52.090;5.244;2023-04-07T07:03:09;101605.0;;;14.73;56.58
61676;BME280;47574;52.090;5.244;2023-04-07T07:06:22;101608.0;;;14.71;56.83
61676;BME280;47574;52.090;5.244;2023-04-07T07:07:58;101607.0;;;14.83;57.32
61676;BME280;47574;52.090;5.244;2023-04-07T07:09:34;101614.0;;;14.94;56.18
61676;BME280;47574;52.090;5.244;2023-04-07T07:12:46;101614.0;;;14.73;56.48
61676;BME280;47574;52.090;5.244;2023-04-07T07:14:22;101614.0;;;14.9;56.74
61676;BME280;47574;52.090;5.244;2023-04-07T07:15:58;101616.0;;;14.91;57.1
61676;BME280;47574;52.090;5.244;2023-04-07T07:19:11;101613.0;;;15.02;56.67
61676;BME280;47574;52.090;5.244;2023-04-07T07:20:47;101616.0;;;15.05;56.2
61676;BME280;47574;52.090;5.244;2023-04-07T07:22:23;101617.0;;;14.89;56.5
61676;BME280;47574;52.090;5.244;2023-04-07T07:23:59;101623.0;;;14.93;56.59
61676;BME280;47574;52.090;5.244;2023-04-07T07:27:12;101624.0;;;15.02;56.12
61676;BME280;47574;52.090;5.244;2023-04-07T07:28:48;101631.0;;;14.76;56.4
61676;BME280;47574;52.090;5.244;2023-04-07T07:30:24;101632.0;;;14.73;57.34
61676;BME280;47574;52.090;5.244;2023-04-07T07:33:36;101633.0;;;15.01;56.42
61676;BME280;47574;52.090;5.244;2023-04-07T07:35:12;101636.0;;;14.83;56.63
61676;BME280;47574;52.090;5.244;2023-04-07T07:36:49;101637.0;;;14.87;56.61
61676;BME280;47574;52.090;5.244;2023-04-07T07:40:02;101641.0;;;15.0;56.56
61676;BME280;47574;52.090;5.244;2023-04-07T07:41:38;101644.0;;;14.78;57.13
61676;BME280;47574;52.090;5.244;2023-04-07T07:43:14;101640.0;;;14.94;57.22
61676;BME280;47574;52.090;5.244;2023-04-07T07:46:26;101643.0;;;14.98;56.41
61676;BME280;47574;52.090;5.244;2023-04-07T07:48:02;101644.0;;;14.87;57.18
61676;BME280;47574;52.090;5.244;2023-04-07T07:49:38;101644.0;;;14.97;56.11
61676;BME280;47574;52.090;5.244;2023-04-07T07:51:15;101649.0;;;15.11;56.11
61676;BME280;47574;52.090;5.244;2023-04-07T07:54:27;101648.0;;;15.1;56.53
61676;BME280;47574;52.090;5.244;2023-04-07T07:56:03;101648.0;;;14.99;56.52
61676;BME280;47574;52.090;5.244;2023-04-07T07:57:39;101651.0;;;15.08;56.08
61676;BME280;47574;52.090;5.244;2023-04-07T08:00:52;101655.0;;;14.94;56.97
61676;BME280;47574;52.090;5.244;2023-04-07T08:02:28;101655.0;;;15.12;56.61
61676;BME280;47574;52.090;5.244;2023-04-07T08:04:04;101657.0;;;15.17;56.5
61676;BME280;47574;52.090;5.244;2023-04-07T08:07:17;101659.0;;;15.22;56.81
61676;BME280;47574;52.090;5.244;2023-04-07T08:08:53;101660.0;;;15.25;56.51
61676;BME280;47574;52.090;5.244;2023-04-07T08:10:29;101663.0;;;15.18;56.4
61676;BME280;47574;52.090;5.244;2023-04-07T08:12:05;101666.0;;;15.14;56.28
61676;BME280;47574;52.090;5.244;2023-04-07T08:15:18;101671.0;;;14.87;56.81
61676;BME280;47574;52.090;5.244;2023-04-07T08:16:54;101670.0;;;15.17;56.78
61676;BME280;47574;52.090;5.244;2023-04-07T08:18:30;101676.0;;;14.72;56.89
61676;BME280;47574;52.090;5.244;2023-04-07T08:21:44;101680.0;;;14.76;56.51
61676;BME280;47574;52.090;5.244;2023-04-07T08:23:21;101678.0;;;14.96;56.23
61676;BME280;47574;52.090;5.244;2023-04-07T08:24:57;101681.0;;;14.84;56.21
61676;BME280;47574;52.090;5.244;2023-04-07T08:28:09;101680.0;;;15.01;56.2
61676;BME280;47574;52.090;5.244;2023-04-07T08:29:50;101680.0;;;14.79;56.22
61676;BME280;47574;52.090;5.244;2023-04-07T08:31:32;101680.0;;;14.78;55.71
61676;BME280;47574;52.090;5.244;2023-04-07T08:33:08;101683.0;;;14.8;55.82
61676;BME280;47574;52.090;5.244;2023-04-07T08:36:21;101684.0;;;15.09;55.54
61676;BME280;47574;52.090;5.244;2023-04-07T08:37:57;101687.0;;;15.08;55.42
61676;BME280;47574;52.090;5.244;2023-04-07T08:39:33;101689.0;;;14.99;55.36
61676;BME280;47574;52.090;5.244;2023-04-07T08:42:48;101692.0;;;14.89;54.66
61676;BME280;47574;52.090;5.244;2023-04-07T08:44:24;101692.0;;;14.94;54.37
61676;BME280;47574;52.090;5.244;2023-04-07T08:46:03;101693.0;;;15.08;54.37
61676;BME280;47574;52.090;5.244;2023-04-07T08:47:40;101697.0;;;14.87;54.02
61676;BME280;47574;52.090;5.244;2023-04-07T08:50:57;101696.0;;;14.94;53.99
61676;BME280;47574;52.090;5.244;2023-04-07T08:52:38;101697.0;;;14.61;54.31
61676;BME280;47574;52.090;5.244;2023-04-07T08:54:18;101703.0;;;15.03;53.34
61676;BME280;47574;52.090;5.244;2023-04-07T08:57:33;101702.0;;;14.81;53.73
61676;BME280;47574;52.090;5.244;2023-04-07T08:59:11;101705.0;;;15.03;53.82
61676;BME280;47574;52.090;5.244;2023-04-07T09:00:49;101700.0;;;15.04;53.61
61676;BME280;47574;52.090;5.244;2023-04-07T09:02:26;101703.0;;;15.02;53.23
61676;BME280;47574;52.090;5.244;2023-04-07T09:05:40;101701.0;;;15.08;53.06
61676;BME280;47574;52.090;5.244;2023-04-07T09:07:19;101706.0;;;15.03;53.29
61676;BME280;47574;52.090;5.244;2023-04-07T09:08:55;101709.0;;;15.08;53.57
61676;BME280;47574;52.090;5.244;2023-04-07T09:12:07;101707.0;;;15.2;52.64
61676;BME280;47574;52.090;5.244;2023-04-07T09:13:44;101713.0;;;15.33;52.66
61676;BME280;47574;52.090;5.244;2023-04-07T09:15:20;101714.0;;;15.22;52.57
61676;BME280;47574;52.090;5.244;2023-04-07T09:16:57;101715.0;;;15.21;52.77
61676;BME280;47574;52.090;5.244;2023-04-07T09:20:10;101720.0;;;15.08;52.43
61676;BME280;47574;52.090;5.244;2023-04-07T09:21:48;101717.0;;;15.13;52.2
61676;BME280;47574;52.090;5.244;2023-04-07T09:23:33;101717.0;;;15.21;52.75
61676;BME280;47574;52.090;5.244;2023-04-07T09:27:07;101721.0;;;15.05;52.29
61676;BME280;47574;52.090;5.244;2023-04-07T09:28:46;101720.0;;;15.33;51.88
61676;BME280;47574;52.090;5.244;2023-04-07T09:30:23;101718.0;;;15.23;52.12
61676;BME280;47574;52.090;5.244;2023-04-07T09:31:59;101727.0;;;15.2;52.3
61676;BME280;47574;52.090;5.244;2023-04-07T09:35:12;101722.0;;;15.38;51.49
61676;BME280;47574;52.090;5.244;2023-04-07T09:36:48;101720.0;;;15.23;52.08
61676;BME280;47574;52.090;5.244;2023-04-07T09:38:31;101719.0;;;15.34;51.76
61676;BME280;47574;52.090;5.244;2023-04-07T09:40:08;101720.0;;;15.63;51.89
61676;BME280;47574;52.090;5.244;2023-04-07T09:43:21;101719.0;;;15.63;51.52
61676;BME280;47574;52.090;5.244;2023-04-07T09:44:57;101724.0;;;15.64;51.5
61676;BME280;47574;52.090;5.244;2023-04-07T09:46:34;101723.0;;;15.66;51.84
61676;BME280;47574;52.090;5.244;2023-04-07T09:49:55;101724.0;;;15.71;51.63
61676;BME280;47574;52.090;5.244;2023-04-07T09:51:32;101730.0;;;15.87;51.16
61676;BME280;47574;52.090;5.244;2023-04-07T09:53:08;101727.0;;;15.67;51.11
61676;BME280;47574;52.090;5.244;2023-04-07T09:54:45;101726.0;;;15.87;50.58
61676;BME280;47574;52.090;5.244;2023-04-07T09:58:00;101730.0;;;15.71;51.92
61676;BME280;47574;52.090;5.244;2023-04-07T09:59:40;101730.0;;;15.95;51.21
61676;BME280;47574;52.090;5.244;2023-04-07T10:01:16;101725.0;;;15.9;51.08
61676;BME280;47574;52.090;5.244;2023-04-07T10:04:29;101735.0;;;15.6;51.8
61676;BME280;47574;52.090;5.244;2023-04-07T10:06:06;101737.0;;;15.51;51.96
61676;BME280;47574;52.090;5.244;2023-04-07T10:07:43;101736.0;;;15.24;52.39
61676;BME280;47574;52.090;5.244;2023-04-07T10:09:19;101738.0;;;15.5;52.32
61676;BME280;47574;52.090;5.244;2023-04-07T10:12:33;101735.0;;;15.66;52.01
61676;BME280;47574;52.090;5.244;2023-04-07T10:14:10;101736.0;;;15.76;51.3
61676;BME280;47574;52.090;5.244;2023-04-07T10:15:47;101736.0;;;15.8;52.28
61676;BME280;47574;52.090;5.244;2023-04-07T10:19:01;101738.0;;;15.81;51.68
61676;BME280;47574;52.090;5.244;2023-04-07T10:20:39;101741.0;;;15.48;52.29
61676;BME280;47574;52.090;5.244;2023-04-07T10:22:15;101739.0;;;15.62;51.81
61676;BME280;47574;52.090;5.244;2023-04-07T10:23:56;101740.0;;;15.56;51.85
61676;BME280;47574;52.090;5.244;2023-04-07T10:27:21;101739.0;;;15.91;51.11
61676;BME280;47574;52.090;5.244;2023-04-07T10:29:06;101741.0;;;15.97;50.86
61676;BME280;47574;52.090;5.244;2023-04-07T10:30:46;101741.0;;;15.88;50.86
61676;BME280;47574;52.090;5.244;2023-04-07T10:32:23;101745.0;;;15.54;51.02
61676;BME280;47574;52.090;5.244;2023-04-07T10:36:02;101751.0;;;15.5;50.99
61676;BME280;47574;52.090;5.244;2023-04-07T10:38:09;101757.0;;;15.56;51.25
61676;BME280;47574;52.090;5.244;2023-04-07T10:39:46;101757.0;;;15.73;51.33
61676;BME280;47574;52.090;5.244;2023-04-07T10:41:31;101764.0;;;15.83;50.86
61676;BME280;47574;52.090;5.244;2023-04-07T10:43:07;101760.0;;;15.43;51.48
61676;BME280;47574;52.090;5.244;2023-04-07T10:46:22;101764.0;;;15.62;50.95
61676;BME280;47574;52.090;5.244;2023-04-07T10:48:14;101770.0;;;15.42;51.64
61676;BME280;47574;52.090;5.244;2023-04-07T10:50:23;101765.0;;;15.64;51.24
61676;BME280;47574;52.090;5.244;2023-04-07T10:52:21;101767.0;;;15.62;51.29
61676;BME280;47574;52.090;5.244;2023-04-07T10:54:16;101772.0;;;15.51;51.44
61676;BME280;47574;52.090;5.244;2023-04-07T10:55:53;101776.0;;;15.39;51.32
61676;BME280;47574;52.090;5.244;2023-04-07T10:57:30;101775.0;;;15.37;51.47
61676;BME280;47574;52.090;5.244;2023-04-07T11:01:21;101778.0;;;15.45;52.11
61676;BME280;47574;52.090;5.244;2023-04-07T11:03:09;101778.0;;;15.52;52.2
61676;BME280;47574;52.090;5.244;2023-04-07T11:04:46;101775.0;;;15.72;51.44
61676;BME280;47574;52.090;5.244;2023-04-07T11:06:23;101775.0;;;15.73;51.26
61676;BME280;47574;52.090;5.244;2023-04-07T11:07:59;101771.0;;;15.84;51.13
61676;BME280;47574;52.090;5.244;2023-04-07T11:11:13;101775.0;;;15.83;51.14
61676;BME280;47574;52.090;5.244;2023-04-07T11:12:59;101773.0;;;15.68;52.38